sensor_id;sensor_type;location;lat;lon;timestamp;pressure;altitude;pressure_sealevel;temperature;humidity
13734;BME280;43298;52.560;13.508;2023-04-06T00:01:56;101531.72;;;3.73;100.00
13734;BME280;43298;52.560;13.508;2023-04-06T00:04:22;101533.41;;;3.75;100.00
13734;BME280;43298;52.560;13.508;2023-04-06T00:06:48;101524.03;;;3.73;100.00
13734;BME280;43298;52.560;13.508;2023-04-06T00:09:14;101523.22;;;3.69;100.00
13734;BME280;43298;52.560;13.508;2023-04-06T00:11:40;101518.94;;;3.70;100.00
13734;BME280;43298;52.560;13.508;2023-04-06T00:14:06;101522.34;;;3.66;100.00
13734;BME280;43298;52.560;13.508;2023-04-06T00:16:32;101512.13;;;3.66;100.00
13734;BME280;43298;52.560;13.508;2023-04-06T00:18:58;101512.97;;;3.62;100.00
13734;BME280;43298;52.560;13.508;2023-04-06T00:21:24;101515.53;;;3.59;100.00
13734;BME280;43298;52.560;13.508;2023-04-06T00:23:51;101512.13;;;3.49;100.00
13734;BME280;43298;52.560;13.508;2023-04-06T00:26:17;101512.13;;;3.51;100.00
13734;BME280;43298;52.560;13.508;2023-04-06T00:28:42;101516.41;;;3.46;100.00
13734;BME280;43298;52.560;13.508;2023-04-06T00:31:08;101515.56;;;3.45;100.00
13734;BME280;43298;52.560;13.508;2023-04-06T00:33:35;101517.25;;;3.45;100.00
13734;BME280;43298;52.560;13.508;2023-04-06T00:36:01;101507.00;;;3.42;100.00
13734;BME280;43298;52.560;13.508;2023-04-06T00:38:27;101509.56;;;3.42;100.00
13734;BME280;43298;52.560;13.508;2023-04-06T00:40:53;101506.19;;;3.41;100.00
13734;BME280;43298;52.560;13.508;2023-04-06T00:43:19;101510.44;;;3.39;100.00
13734;BME280;43298;52.560;13.508;2023-04-06T00:45:44;101507.91;;;3.32;100.00
13734;BME280;43298;52.560;13.508;2023-04-06T00:48:10;101512.13;;;3.22;100.00
13734;BME280;43298;52.560;13.508;2023-04-06T00:50:36;101506.19;;;3.22;100.00
13734;BME280;43298;52.560;13.508;2023-04-06T00:53:02;101512.16;;;3.19;100.00
13734;BME280;43298;52.560;13.508;2023-04-06T00:55:29;101508.72;;;3.20;100.00
13734;BME280;43298;52.560;13.508;2023-04-06T00:57:58;101518.97;;;3.22;100.00
13734;BME280;43298;52.560;13.508;2023-04-06T01:00:24;101509.59;;;3.27;100.00
13734;BME280;43298;52.560;13.508;2023-04-06T01:02:51;101505.31;;;3.35;100.00
13734;BME280;43298;52.560;13.508;2023-04-06T01:05:17;101507.88;;;3.38;100.00
13734;BME280;43298;52.560;13.508;2023-04-06T01:07:42;101501.94;;;3.36;100.00
13734;BME280;43298;52.560;13.508;2023-04-06T01:10:09;101505.31;;;3.42;100.00
13734;BME280;43298;52.560;13.508;2023-04-06T01:12:35;101507.03;;;3.45;100.00
13734;BME280;43298;52.560;13.508;2023-04-06T01:15:03;101511.28;;;3.47;100.00
13734;BME280;43298;52.560;13.508;2023-04-06T01:17:29;101507.88;;;3.48;100.00
13734;BME280;43298;52.560;13.508;2023-04-06T01:19:55;101501.91;;;3.48;100.00
13734;BME280;43298;52.560;13.508;2023-04-06T01:22:21;101502.78;;;3.48;100.00
13734;BME280;43298;52.560;13.508;2023-04-06T01:24:47;101505.31;;;3.38;100.00
13734;BME280;43298;52.560;13.508;2023-04-06T01:27:13;101509.59;;;3.31;100.00
13734;BME280;43298;52.560;13.508;2023-04-06T01:29:39;101510.44;;;3.29;100.00
13734;BME280;43298;52.560;13.508;2023-04-06T01:32:09;101504.47;;;3.23;100.00
13734;BME280;43298;52.560;13.508;2023-04-06T01:34:35;101516.41;;;3.25;100.00
13734;BME280;43298;52.560;13.508;2023-04-06T01:37:01;101503.63;;;3.25;100.00
13734;BME280;43298;52.560;13.508;2023-04-06T01:39:27;101513.00;;;3.24;100.00
13734;BME280;43298;52.560;13.508;2023-04-06T01:41:52;101516.41;;;3.23;100.00
13734;BME280;43298;52.560;13.508;2023-04-06T01:44:19;101509.56;;;3.23;100.00
13734;BME280;43298;52.560;13.508;2023-04-06T01:46:44;101504.50;;;3.21;100.00
13734;BME280;43298;52.560;13.508;2023-04-06T01:49:12;101508.72;;;3.20;100.00
13734;BME280;43298;52.560;13.508;2023-04-06T01:51:38;101509.56;;;3.11;100.00
13734;BME280;43298;52.560;13.508;2023-04-06T01:54:04;101511.28;;;3.05;100.00
13734;BME280;43298;52.560;13.508;2023-04-06T01:56:29;101509.56;;;2.95;100.00
13734;BME280;43298;52.560;13.508;2023-04-06T01:58:55;101512.13;;;2.93;100.00
13734;BME280;43298;52.560;13.508;2023-04-06T02:01:22;101507.00;;;2.92;100.00
13734;BME280;43298;52.560;13.508;2023-04-06T02:03:47;101510.41;;;2.89;100.00
13734;BME280;43298;52.560;13.508;2023-04-06T02:06:13;101512.09;;;2.90;100.00
13734;BME280;43298;52.560;13.508;2023-04-06T02:08:39;101510.41;;;2.92;100.00
13734;BME280;43298;52.560;13.508;2023-04-06T02:11:05;101511.25;;;2.88;100.00
13734;BME280;43298;52.560;13.508;2023-04-06T02:13:31;101509.53;;;2.89;100.00
13734;BME280;43298;52.560;13.508;2023-04-06T02:15:57;101505.28;;;2.88;100.00
13734;BME280;43298;52.560;13.508;2023-04-06T02:18:23;101508.72;;;2.87;100.00
13734;BME280;43298;52.560;13.508;2023-04-06T02:20:49;101512.94;;;2.85;100.00
13734;BME280;43298;52.560;13.508;2023-04-06T02:23:15;101510.38;;;2.79;100.00
13734;BME280;43298;52.560;13.508;2023-04-06T02:25:41;101506.09;;;2.70;100.00
13734;BME280;43298;52.560;13.508;2023-04-06T02:28:07;101506.09;;;2.64;100.00
13734;BME280;43298;52.560;13.508;2023-04-06T02:30:33;101507.75;;;2.61;100.00
13734;BME280;43298;52.560;13.508;2023-04-06T02:33:00;101514.56;;;2.54;100.00
13734;BME280;43298;52.560;13.508;2023-04-06T02:35:29;101511.13;;;2.52;100.00
13734;BME280;43298;52.560;13.508;2023-04-06T02:37:55;101512.84;;;2.47;100.00
13734;BME280;43298;52.560;13.508;2023-04-06T02:40:21;101511.13;;;2.43;100.00
13734;BME280;43298;52.560;13.508;2023-04-06T02:45:13;101514.47;;;2.32;100.00
13734;BME280;43298;52.560;13.508;2023-04-06T02:47:39;101514.47;;;2.24;100.00
13734;BME280;43298;52.560;13.508;2023-04-06T02:50:05;101510.19;;;2.23;100.00
13734;BME280;43298;52.560;13.508;2023-04-06T02:52:31;101512.72;;;2.20;100.00
13734;BME280;43298;52.560;13.508;2023-04-06T02:54:57;101513.56;;;2.16;100.00
13734;BME280;43298;52.560;13.508;2023-04-06T02:57:23;101519.47;;;2.11;100.00
13734;BME280;43298;52.560;13.508;2023-04-06T02:59:49;101516.06;;;2.06;100.00
13734;BME280;43298;52.560;13.508;2023-04-06T03:02:15;101516.06;;;2.06;100.00
13734;BME280;43298;52.560;13.508;2023-04-06T03:04:42;101516.06;;;2.07;100.00
13734;BME280;43298;52.560;13.508;2023-04-06T03:07:07;101518.56;;;2.00;100.00
13734;BME280;43298;52.560;13.508;2023-04-06T03:09:33;101514.28;;;1.93;100.00
13734;BME280;43298;52.560;13.508;2023-04-06T03:11:59;101525.28;;;1.87;100.00
13734;BME280;43298;52.560;13.508;2023-04-06T03:14:27;101528.66;;;1.80;100.00
13734;BME280;43298;52.560;13.508;2023-04-06T03:16:53;101525.22;;;1.75;100.00
13734;BME280;43298;52.560;13.508;2023-04-06T03:19:19;101521.78;;;1.70;100.00
13734;BME280;43298;52.560;13.508;2023-04-06T03:21:45;101526.03;;;1.68;100.00
13734;BME280;43298;52.560;13.508;2023-04-06T03:24:11;101524.28;;;1.63;100.00
13734;BME280;43298;52.560;13.508;2023-04-06T03:26:38;101526.81;;;1.60;100.00
13734;BME280;43298;52.560;13.508;2023-04-06T03:29:04;101528.47;;;1.55;100.00
13734;BME280;43298;52.560;13.508;2023-04-06T03:31:30;101532.69;;;1.50;100.00
13734;BME280;43298;52.560;13.508;2023-04-06T03:33:56;101540.28;;;1.45;100.00
13734;BME280;43298;52.560;13.508;2023-04-06T03:36:22;101535.16;;;1.39;100.00
13734;BME280;43298;52.560;13.508;2023-04-06T03:38:47;101541.88;;;1.28;100.00
13734;BME280;43298;52.560;13.508;2023-04-06T03:41:13;101546.06;;;1.25;100.00
13734;BME280;43298;52.560;13.508;2023-04-06T03:43:39;101547.69;;;1.17;100.00
13734;BME280;43298;52.560;13.508;2023-04-06T03:46:05;101549.34;;;1.13;100.00
13734;BME280;43298;52.560;13.508;2023-04-06T03:48:31;101543.34;;;1.08;100.00
13734;BME280;43298;52.560;13.508;2023-04-06T03:50:57;101555.31;;;1.15;100.00
13734;BME280;43298;52.560;13.508;2023-04-06T03:53:22;101551.06;;;1.13;100.00
13734;BME280;43298;52.560;13.508;2023-04-06T03:55:48;101551.88;;;1.13;100.00
13734;BME280;43298;52.560;13.508;2023-04-06T03:58:14;101548.53;;;1.17;100.00
13734;BME280;43298;52.560;13.508;2023-04-06T04:00:40;101554.41;;;1.12;100.00
13734;BME280;43298;52.560;13.508;2023-04-06T04:03:06;101552.69;;;1.08;100.00
13734;BME280;43298;52.560;13.508;2023-04-06T04:05:31;101559.38;;;0.98;100.00
13734;BME280;43298;52.560;13.508;2023-04-06T04:07:57;101559.25;;;0.86;100.00
13734;BME280;43298;52.560;13.508;2023-04-06T04:10:23;101562.63;;;0.82;100.00
13734;BME280;43298;52.560;13.508;2023-04-06T04:12:49;101562.53;;;0.76;100.00
13734;BME280;43298;52.560;13.508;2023-04-06T04:15:15;101569.25;;;0.71;100.00
13734;BME280;43298;52.560;13.508;2023-04-06T04:17:41;101567.50;;;0.66;100.00
13734;BME280;43298;52.560;13.508;2023-04-06T04:20:07;101571.75;;;0.65;100.00
13734;BME280;43298;52.560;13.508;2023-04-06T04:22:33;101564.06;;;0.62;100.00
13734;BME280;43298;52.560;13.508;2023-04-06T04:24:59;101567.56;;;0.70;100.00
13734;BME280;43298;52.560;13.508;2023-04-06T04:27:25;101568.28;;;0.60;100.00
13734;BME280;43298;52.560;13.508;2023-04-06T04:29:51;101565.72;;;0.59;100.00
13734;BME280;43298;52.560;13.508;2023-04-06T04:32:16;101566.47;;;0.50;100.00
13734;BME280;43298;52.560;13.508;2023-04-06T04:34:42;101572.44;;;0.52;100.00
13734;BME280;43298;52.560;13.508;2023-04-06T04:37:08;101571.69;;;0.61;100.00
13734;BME280;43298;52.560;13.508;2023-04-06T04:39:34;101570.78;;;0.59;100.00
13734;BME280;43298;52.560;13.508;2023-04-06T04:42:00;101577.63;;;0.61;100.00
13734;BME280;43298;52.560;13.508;2023-04-06T04:44:26;101573.31;;;0.54;100.00
13734;BME280;43298;52.560;13.508;2023-04-06T04:46:52;101573.38;;;0.62;100.00
13734;BME280;43298;52.560;13.508;2023-04-06T04:49:18;101571.72;;;0.62;100.00
13734;BME280;43298;52.560;13.508;2023-04-06T04:51:44;101573.53;;;0.72;100.00
13734;BME280;43298;52.560;13.508;2023-04-06T04:54:09;101571.03;;;0.75;100.00
13734;BME280;43298;52.560;13.508;2023-04-06T04:56:35;101575.25;;;0.76;100.00
13734;BME280;43298;52.560;13.508;2023-04-06T04:59:01;101573.56;;;0.78;100.00
13734;BME280;43298;52.560;13.508;2023-04-06T05:01:27;101573.63;;;0.81;100.00
13734;BME280;43298;52.560;13.508;2023-04-06T05:03:54;101578.69;;;0.80;100.00
13734;BME280;43298;52.560;13.508;2023-04-06T05:06:20;101581.22;;;0.77;100.00
13734;BME280;43298;52.560;13.508;2023-04-06T05:08:45;101575.22;;;0.72;100.00
13734;BME280;43298;52.560;13.508;2023-04-06T05:11:11;101569.22;;;0.67;100.00
13734;BME280;43298;52.560;13.508;2023-04-06T05:13:37;101574.28;;;0.65;100.00
13734;BME280;43298;52.560;13.508;2023-04-06T05:16:03;101575.16;;;0.67;100.00
13734;BME280;43298;52.560;13.508;2023-04-06T05:18:30;101577.72;;;0.69;100.00
13734;BME280;43298;52.560;13.508;2023-04-06T05:20:56;101576.84;;;0.65;100.00
13734;BME280;43298;52.560;13.508;2023-04-06T05:23:21;101580.22;;;0.66;100.00
13734;BME280;43298;52.560;13.508;2023-04-06T05:25:47;101579.41;;;0.68;100.00
13734;BME280;43298;52.560;13.508;2023-04-06T05:28:13;101582.88;;;0.73;100.00
13734;BME280;43298;52.560;13.508;2023-04-06T05:30:41;101578.69;;;0.80;100.00
13734;BME280;43298;52.560;13.508;2023-04-06T05:33:07;101584.72;;;0.86;100.00
13734;BME280;43298;52.560;13.508;2023-04-06T05:35:33;101594.25;;;1.05;100.00
13734;BME280;43298;52.560;13.508;2023-04-06T05:37:59;101591.81;;;1.14;100.00
13734;BME280;43298;52.560;13.508;2023-04-06T05:40:25;101590.13;;;1.18;100.00
13734;BME280;43298;52.560;13.508;2023-04-06T05:42:51;101595.44;;;1.39;100.00
13734;BME280;43298;52.560;13.508;2023-04-06T05:45:17;101593.75;;;1.42;100.00
13734;BME280;43298;52.560;13.508;2023-04-06T05:47:44;101599.00;;;1.56;100.00
13734;BME280;43298;52.560;13.508;2023-04-06T05:50:14;101600.91;;;1.81;100.00
13734;BME280;43298;52.560;13.508;2023-04-06T05:52:40;101596.03;;;2.14;100.00
13734;BME280;43298;52.560;13.508;2023-04-06T05:55:09;101595.25;;;2.31;100.00
13734;BME280;43298;52.560;13.508;2023-04-06T05:57:36;101589.38;;;2.41;100.00
13734;BME280;43298;52.560;13.508;2023-04-06T06:00:02;101594.56;;;2.59;100.00
13734;BME280;43298;52.560;13.508;2023-04-06T06:02:30;101584.44;;;2.83;100.00
13734;BME280;43298;52.560;13.508;2023-04-06T06:04:57;101588.78;;;3.01;100.00
13734;BME280;43298;52.560;13.508;2023-04-06T06:07:23;101585.38;;;3.12;100.00
13734;BME280;43298;52.560;13.508;2023-04-06T06:09:49;101585.41;;;3.25;100.00
13734;BME280;43298;52.560;13.508;2023-04-06T06:12:15;101582.88;;;3.41;100.00
13734;BME280;43298;52.560;13.508;2023-04-06T06:14:41;101583.72;;;3.48;100.00
13734;BME280;43298;52.560;13.508;2023-04-06T06:17:08;101584.56;;;3.57;100.00
13734;BME280;43298;52.560;13.508;2023-04-06T06:19:33;101576.81;;;4.28;100.00
13734;BME280;43298;52.560;13.508;2023-04-06T06:21:59;101583.28;;;5.10;100.00
13734;BME280;43298;52.560;13.508;2023-04-06T06:24:28;101584.44;;;5.89;100.00
13734;BME280;43298;52.560;13.508;2023-04-06T06:26:53;101584.78;;;6.38;100.00
13734;BME280;43298;52.560;13.508;2023-04-06T06:29:19;101575.03;;;6.65;100.00
13734;BME280;43298;52.560;13.508;2023-04-06T06:31:45;101579.41;;;6.59;100.00
13734;BME280;43298;52.560;13.508;2023-04-06T06:34:11;101583.91;;;7.07;100.00
13734;BME280;43298;52.560;13.508;2023-04-06T06:36:38;101576.69;;;7.33;100.00
13734;BME280;43298;52.560;13.508;2023-04-06T06:39:04;101580.03;;;7.36;100.00
13734;BME280;43298;52.560;13.508;2023-04-06T06:41:30;101582.72;;;7.30;100.00
13734;BME280;43298;52.560;13.508;2023-04-06T06:43:56;101583.69;;;7.23;100.00
13734;BME280;43298;52.560;13.508;2023-04-06T06:46:22;101584.94;;;6.95;100.00
13734;BME280;43298;52.560;13.508;2023-04-06T06:48:47;101589.13;;;7.04;100.00
13734;BME280;43298;52.560;13.508;2023-04-06T06:51:13;101590.63;;;7.17;100.00
13734;BME280;43298;52.560;13.508;2023-04-06T06:53:39;101589.88;;;7.10;100.00
13734;BME280;43298;52.560;13.508;2023-04-06T06:56:05;101591.13;;;7.41;100.00
13734;BME280;43298;52.560;13.508;2023-04-06T06:58:31;101598.91;;;7.90;100.00
13734;BME280;43298;52.560;13.508;2023-04-06T07:00:58;101593.59;;;7.47;100.00
13734;BME280;43298;52.560;13.508;2023-04-06T07:03:24;101595.38;;;7.44;100.00
13734;BME280;43298;52.560;13.508;2023-04-06T07:05:51;101588.75;;;7.81;100.00
13734;BME280;43298;52.560;13.508;2023-04-06T07:08:23;101589.31;;;7.99;100.00
13734;BME280;43298;52.560;13.508;2023-04-06T07:10:53;101594.53;;;7.43;100.00
13734;BME280;43298;52.560;13.508;2023-04-06T07:13:20;101587.47;;;8.04;100.00
13734;BME280;43298;52.560;13.508;2023-04-06T07:15:49;101587.84;;;7.85;100.00
13734;BME280;43298;52.560;13.508;2023-04-06T07:18:16;101588.72;;;7.84;100.00
13734;BME280;43298;52.560;13.508;2023-04-06T07:20:42;101587.19;;;8.22;100.00
13734;BME280;43298;52.560;13.508;2023-04-06T07:23:08;101585.94;;;8.44;100.00
13734;BME280;43298;52.560;13.508;2023-04-06T07:25:34;101584.22;;;8.43;100.00
13734;BME280;43298;52.560;13.508;2023-04-06T07:28:01;101585.53;;;8.17;100.00
13734;BME280;43298;52.560;13.508;2023-04-06T07:30:27;101580.13;;;8.33;100.00
13734;BME280;43298;52.560;13.508;2023-04-06T07:32:54;101580.59;;;8.53;100.00
13734;BME280;43298;52.560;13.508;2023-04-06T07:35:26;101580.22;;;8.71;100.00
13734;BME280;43298;52.560;13.508;2023-04-06T07:37:53;101587.19;;;8.66;100.00
13734;BME280;43298;52.560;13.508;2023-04-06T07:40:19;101579.22;;;8.77;100.00
13734;BME280;43298;52.560;13.508;2023-04-06T07:42:45;101574.19;;;9.10;100.00
13734;BME280;43298;52.560;13.508;2023-04-06T07:45:12;101575.84;;;9.51;100.00
13734;BME280;43298;52.560;13.508;2023-04-06T07:47:38;101582.53;;;9.21;97.34
13734;BME280;43298;52.560;13.508;2023-04-06T07:50:04;101575.72;;;9.56;96.12
13734;BME280;43298;52.560;13.508;2023-04-06T07:52:30;101571.81;;;9.75;92.05
13734;BME280;43298;52.560;13.508;2023-04-06T07:54:58;101570.53;;;9.91;90.21
13734;BME280;43298;52.560;13.508;2023-04-06T07:57:24;101567.00;;;9.95;89.37
13734;BME280;43298;52.560;13.508;2023-04-06T07:59:50;101571.97;;;10.01;87.42
13734;BME280;43298;52.560;13.508;2023-04-06T08:02:16;101568.00;;;10.23;85.58
13734;BME280;43298;52.560;13.508;2023-04-06T08:04:44;101576.13;;;10.08;84.98
13734;BME280;43298;52.560;13.508;2023-04-06T08:07:09;101566.16;;;10.57;82.80
13734;BME280;43298;52.560;13.508;2023-04-06T08:09:35;101568.16;;;10.17;80.66
13734;BME280;43298;52.560;13.508;2023-04-06T08:12:01;101569.66;;;10.25;80.58
13734;BME280;43298;52.560;13.508;2023-04-06T08:14:27;101569.53;;;10.30;79.21
13734;BME280;43298;52.560;13.508;2023-04-06T08:16:53;101571.69;;;10.45;78.00
13734;BME280;43298;52.560;13.508;2023-04-06T08:19:19;101568.03;;;10.52;75.80
13734;BME280;43298;52.560;13.508;2023-04-06T08:21:46;101572.81;;;10.65;75.57
13734;BME280;43298;52.560;13.508;2023-04-06T08:24:13;101573.66;;;10.95;74.71
13734;BME280;43298;52.560;13.508;2023-04-06T08:26:39;101571.47;;;10.83;73.35
13734;BME280;43298;52.560;13.508;2023-04-06T08:29:05;101571.00;;;11.25;73.84
13734;BME280;43298;52.560;13.508;2023-04-06T08:31:35;101567.41;;;11.29;70.29
13734;BME280;43298;52.560;13.508;2023-04-06T08:34:03;101569.44;;;11.20;66.23
13734;BME280;43298;52.560;13.508;2023-04-06T08:36:29;101564.78;;;11.31;65.35
13734;BME280;43298;52.560;13.508;2023-04-06T08:38:55;101569.09;;;11.58;64.18
13734;BME280;43298;52.560;13.508;2023-04-06T08:41:21;101565.47;;;11.63;64.10
13734;BME280;43298;52.560;13.508;2023-04-06T08:43:59;101560.22;;;11.66;64.30
13734;BME280;43298;52.560;13.508;2023-04-06T08:46:26;101555.72;;;11.96;64.36
13734;BME280;43298;52.560;13.508;2023-04-06T08:49:01;101559.53;;;12.10;61.95
13734;BME280;43298;52.560;13.508;2023-04-06T08:51:29;101564.69;;;11.60;60.56
13734;BME280;43298;52.560;13.508;2023-04-06T08:53:58;101565.13;;;11.74;59.90
13734;BME280;43298;52.560;13.508;2023-04-06T08:56:27;101564.91;;;12.54;59.25
13734;BME280;43298;52.560;13.508;2023-04-06T08:58:55;101562.91;;;12.12;57.58
13734;BME280;43298;52.560;13.508;2023-04-06T09:01:26;101555.53;;;12.02;58.03
13734;BME280;43298;52.560;13.508;2023-04-06T09:03:57;101565.03;;;12.01;57.99
13734;BME280;43298;52.560;13.508;2023-04-06T09:06:25;101563.97;;;12.07;57.06
13734;BME280;43298;52.560;13.508;2023-04-06T09:08:56;101562.56;;;11.98;57.25
13734;BME280;43298;52.560;13.508;2023-04-06T09:11:23;101558.38;;;12.19;57.71
13734;BME280;43298;52.560;13.508;2023-04-06T09:13:50;101561.00;;;12.88;59.79
13734;BME280;43298;52.560;13.508;2023-04-06T09:16:17;101552.69;;;11.83;58.63
13734;BME280;43298;52.560;13.508;2023-04-06T09:18:43;101556.03;;;11.87;58.45
13734;BME280;43298;52.560;13.508;2023-04-06T09:21:09;101552.22;;;12.22;57.26
13734;BME280;43298;52.560;13.508;2023-04-06T09:23:36;101554.38;;;12.80;56.51
13734;BME280;43298;52.560;13.508;2023-04-06T09:26:14;101556.75;;;12.40;53.77
13734;BME280;43298;52.560;13.508;2023-04-06T09:28:52;101556.97;;;12.34;54.08
13734;BME280;43298;52.560;13.508;2023-04-06T09:31:30;101547.31;;;12.14;54.70
13734;BME280;43298;52.560;13.508;2023-04-06T09:33:58;101548.09;;;12.16;55.13
13734;BME280;43298;52.560;13.508;2023-04-06T09:36:37;101556.31;;;11.26;55.17
13734;BME280;43298;52.560;13.508;2023-04-06T09:39:07;101551.63;;;10.82;56.24
13734;BME280;43298;52.560;13.508;2023-04-06T09:41:36;101543.25;;;10.45;57.22
13734;BME280;43298;52.560;13.508;2023-04-06T09:44:09;101539.13;;;11.23;57.92
13734;BME280;43298;52.560;13.508;2023-04-06T09:46:44;101543.66;;;11.43;57.68
13734;BME280;43298;52.560;13.508;2023-04-06T09:49:12;101538.81;;;10.77;57.28
13734;BME280;43298;52.560;13.508;2023-04-06T09:51:55;101530.16;;;10.51;56.86
13734;BME280;43298;52.560;13.508;2023-04-06T09:54:23;101533.06;;;10.68;56.19
13734;BME280;43298;52.560;13.508;2023-04-06T09:57:25;101530.22;;;11.84;54.79
13734;BME280;43298;52.560;13.508;2023-04-06T10:00:07;101525.13;;;11.29;57.71
13734;BME280;43298;52.560;13.508;2023-04-06T10:03:40;101531.56;;;10.90;58.53
13734;BME280;43298;52.560;13.508;2023-04-06T10:06:07;101526.16;;;11.51;57.54
13734;BME280;43298;52.560;13.508;2023-04-06T10:08:38;101526.97;;;11.79;53.87
13734;BME280;43298;52.560;13.508;2023-04-06T10:11:09;101522.03;;;12.44;51.77
13734;BME280;43298;52.560;13.508;2023-04-06T10:13:36;101517.13;;;11.62;53.09
13734;BME280;43298;52.560;13.508;2023-04-06T10:16:02;101519.44;;;11.71;55.10
13734;BME280;43298;52.560;13.508;2023-04-06T10:18:28;101528.75;;;12.72;54.37
13734;BME280;43298;52.560;13.508;2023-04-06T10:21:12;101520.66;;;14.06;50.68
13734;BME280;43298;52.560;13.508;2023-04-06T10:24:01;101517.78;;;14.69;46.66
13734;BME280;43298;52.560;13.508;2023-04-06T10:26:27;101523.06;;;13.90;43.65
13734;BME280;43298;52.560;13.508;2023-04-06T10:29:02;101525.38;;;14.16;43.60
13734;BME280;43298;52.560;13.508;2023-04-06T10:31:28;101520.22;;;13.96;42.23
13734;BME280;43298;52.560;13.508;2023-04-06T10:33:56;101519.59;;;14.30;41.75
13734;BME280;43298;52.560;13.508;2023-04-06T10:36:33;101519.50;;;14.70;42.83
13734;BME280;43298;52.560;13.508;2023-04-06T10:39:05;101517.50;;;14.93;44.85
13734;BME280;43298;52.560;13.508;2023-04-06T10:41:35;101521.66;;;14.42;43.30
13734;BME280;43298;52.560;13.508;2023-04-06T10:44:02;101522.16;;;13.08;47.00
13734;BME280;43298;52.560;13.508;2023-04-06T10:46:31;101521.72;;;12.28;48.32
13734;BME280;43298;52.560;13.508;2023-04-06T10:48:57;101517.03;;;11.91;50.93
13734;BME280;43298;52.560;13.508;2023-04-06T10:51:28;101521.78;;;11.51;50.54
13734;BME280;43298;52.560;13.508;2023-04-06T10:53:55;101514.88;;;11.52;50.38
13734;BME280;43298;52.560;13.508;2023-04-06T10:56:25;101510.56;;;11.52;48.78
13734;BME280;43298;52.560;13.508;2023-04-06T10:58:54;101508.53;;;11.62;50.92
13734;BME280;43298;52.560;13.508;2023-04-06T11:01:24;101502.31;;;12.84;45.97
13734;BME280;43298;52.560;13.508;2023-04-06T11:03:56;101501.97;;;14.16;42.36
13734;BME280;43298;52.560;13.508;2023-04-06T11:06:29;101496.44;;;14.04;44.02
13734;BME280;43298;52.560;13.508;2023-04-06T11:08:57;101501.06;;;15.10;42.95
13734;BME280;43298;52.560;13.508;2023-04-06T11:11:25;101500.72;;;15.18;39.51
13734;BME280;43298;52.560;13.508;2023-04-06T11:13:59;101493.75;;;16.03;39.04
13734;BME280;43298;52.560;13.508;2023-04-06T11:16:31;101490.25;;;16.20;39.23
13734;BME280;43298;52.560;13.508;2023-04-06T11:19:03;101498.72;;;15.23;39.55
13734;BME280;43298;52.560;13.508;2023-04-06T11:24:14;101501.78;;;15.31;39.32
13734;BME280;43298;52.560;13.508;2023-04-06T11:26:45;101496.50;;;15.68;41.23
13734;BME280;43298;52.560;13.508;2023-04-06T11:29:12;101484.09;;;16.05;40.33
13734;BME280;43298;52.560;13.508;2023-04-06T11:31:46;101485.38;;;16.14;39.22
13734;BME280;43298;52.560;13.508;2023-04-06T11:34:22;101481.59;;;15.36;39.88
13734;BME280;43298;52.560;13.508;2023-04-06T11:36:54;101484.94;;;14.29;41.79
13734;BME280;43298;52.560;13.508;2023-04-06T11:39:25;101475.59;;;13.45;42.57
13734;BME280;43298;52.560;13.508;2023-04-06T11:41:53;101479.66;;;13.11;43.81
13734;BME280;43298;52.560;13.508;2023-04-06T11:44:39;101484.13;;;13.07;44.55
13734;BME280;43298;52.560;13.508;2023-04-06T11:47:10;101478.09;;;14.82;42.41
13734;BME280;43298;52.560;13.508;2023-04-06T11:49:44;101469.75;;;15.29;39.34
13734;BME280;43298;52.560;13.508;2023-04-06T11:52:24;101472.66;;;15.23;40.12
13734;BME280;43298;52.560;13.508;2023-04-06T11:54:52;101473.91;;;14.04;41.79
13734;BME280;43298;52.560;13.508;2023-04-06T11:57:21;101471.28;;;14.24;42.57
13734;BME280;43298;52.560;13.508;2023-04-06T11:59:49;101466.84;;;13.68;41.58
13734;BME280;43298;52.560;13.508;2023-04-06T12:02:16;101471.31;;;13.84;42.81
13734;BME280;43298;52.560;13.508;2023-04-06T12:04:43;101464.44;;;13.43;40.90
13734;BME280;43298;52.560;13.508;2023-04-06T12:07:09;101460.91;;;13.24;45.58
13734;BME280;43298;52.560;13.508;2023-04-06T12:09:35;101469.09;;;12.71;47.28
13734;BME280;43298;52.560;13.508;2023-04-06T12:12:03;101465.22;;;13.25;46.89
13734;BME280;43298;52.560;13.508;2023-04-06T12:14:29;101458.34;;;14.41;43.53
13734;BME280;43298;52.560;13.508;2023-04-06T12:16:57;101456.53;;;15.67;41.73
13734;BME280;43298;52.560;13.508;2023-04-06T12:19:23;101465.25;;;15.83;42.70
13734;BME280;43298;52.560;13.508;2023-04-06T12:21:52;101466.38;;;15.78;42.21
13734;BME280;43298;52.560;13.508;2023-04-06T12:24:19;101458.75;;;15.58;39.93
13734;BME280;43298;52.560;13.508;2023-04-06T12:26:45;101471.19;;;16.35;40.19
13734;BME280;43298;52.560;13.508;2023-04-06T12:29:11;101454.19;;;15.78;38.52
13734;BME280;43298;52.560;13.508;2023-04-06T12:31:39;101464.41;;;16.63;36.52
13734;BME280;43298;52.560;13.508;2023-04-06T12:34:06;101463.63;;;16.77;40.78
13734;BME280;43298;52.560;13.508;2023-04-06T12:36:33;101451.50;;;15.97;39.98
13734;BME280;43298;52.560;13.508;2023-04-06T12:39:00;101447.28;;;16.10;38.70
13734;BME280;43298;52.560;13.508;2023-04-06T12:41:27;101456.09;;;16.24;39.99
13734;BME280;43298;52.560;13.508;2023-04-06T12:43:53;101445.28;;;15.50;42.73
13734;BME280;43298;52.560;13.508;2023-04-06T12:46:19;101450.34;;;15.36;43.42
13734;BME280;43298;52.560;13.508;2023-04-06T12:48:46;101447.13;;;14.76;43.45